Time;durP1;ratioP1;P1;durP2;ratioP2;P2;SDS_P1;SDS_P2;PMS_P1;PMS_P2;Temp;Humidity;BMP_temperature;BMP_pressure;BME280_temperature;BME280_humidity;BME280_pressure;Samples;Min_cycle;Max_cycle;Signal;HPM_P1;HPM_P2
2022/07/22 00:01:41;;;;;;;8.35;2.63;;;16.40;99.90;;;;;;5059183;28;20045;-65
2022/07/22 00:04:06;;;;;;;14.07;2.72;;;16.40;99.90;;;;;;5051173;28;20638;-64
2022/07/22 00:06:32;;;;;;;10.95;2.28;;;16.60;99.90;;;;;;5053101;28;20082;-65
2022/07/22 00:08:57;;;;;;;8.48;2.60;;;16.30;99.90;;;;;;5052130;28;20041;-65
2022/07/22 00:11:26;;;;;;;13.70;2.60;;;16.40;99.90;;;;;;5059317;28;20032;-65
2022/07/22 00:13:51;;;;;;;6.10;2.38;;;16.50;99.90;;;;;;5049217;28;20167;-65
2022/07/22 00:16:17;;;;;;;13.00;2.40;;;16.40;99.90;;;;;;5052973;28;20072;-64
2022/07/22 00:18:42;;;;;;;8.73;2.97;;;16.30;99.90;;;;;;5054234;28;20049;-64
2022/07/22 00:21:08;;;;;;;8.32;2.10;;;16.30;99.90;;;;;;5059808;28;20044;-64
2022/07/22 00:23:36;;;;;;;12.57;3.08;;;16.40;99.90;;;;;;5058947;28;20414;-64
2022/07/22 00:26:04;;;;;;;16.23;2.33;;;16.30;99.90;;;;;;5054631;28;20045;-65
2022/07/22 00:28:30;;;;;;;5.80;2.00;;;16.30;99.90;;;;;;5051505;28;20505;-65
2022/07/22 00:30:56;;;;;;;8.70;2.17;;;16.40;99.90;;;;;;5053598;28;20094;-65
2022/07/22 00:33:22;;;;;;;8.48;3.00;;;16.30;99.90;;;;;;5057153;28;20546;-65
2022/07/22 00:35:47;;;;;;;6.70;2.05;;;16.30;99.90;;;;;;5055763;28;20123;-65
2022/07/22 00:38:13;;;;;;;6.40;2.15;;;16.30;99.90;;;;;;5052290;28;20037;-65
2022/07/22 00:40:39;;;;;;;7.50;2.05;;;16.30;99.90;;;;;;5053106;28;20037;-65
2022/07/22 00:43:04;;;;;;;5.30;1.88;;;16.30;99.90;;;;;;5049321;28;20167;-65
2022/07/22 00:45:30;;;;;;;12.85;2.28;;;16.10;99.90;;;;;;5054867;28;20037;-65
2022/07/22 00:47:55;;;;;;;7.07;2.13;;;16.40;99.90;;;;;;5052657;28;20124;-64
2022/07/22 00:50:23;;;;;;;6.88;1.88;;;16.30;99.90;;;;;;5060516;28;20115;-65
2022/07/22 00:52:49;;;;;;;8.98;2.13;;;16.20;99.90;;;;;;5054133;28;20040;-65
2022/07/22 00:55:15;;;;;;;10.13;2.25;;;16.20;99.90;;;;;;5058635;28;20037;-65
2022/07/22 00:57:41;;;;;;;7.53;2.08;;;16.50;99.90;;;;;;5052008;28;20057;-65
2022/07/22 01:00:11;;;;;;;8.57;2.70;;;16.20;99.90;;;;;;5052453;28;20052;-65
2022/07/22 01:02:37;;;;;;;7.35;2.40;;;16.30;99.90;;;;;;5054929;28;20044;-65
2022/07/22 01:05:04;;;;;;;11.45;2.38;;;16.10;99.90;;;;;;5048631;28;20040;-65
2022/07/22 01:07:30;;;;;;;8.00;2.60;;;;;;;;;;5047300;28;20043;-65
2022/07/22 01:09:56;;;;;;;5.80;1.73;;;16.10;99.90;;;;;;5055803;28;20089;-65
2022/07/22 01:12:21;;;;;;;12.27;2.88;;;16.30;99.90;;;;;;5051981;28;20037;-65
2022/07/22 01:14:47;;;;;;;6.82;2.53;;;16.10;99.90;;;;;;5048505;28;20044;-65
2022/07/22 01:17:12;;;;;;;10.98;2.33;;;16.20;99.90;;;;;;5046727;28;20414;-65
2022/07/22 01:19:38;;;;;;;5.22;1.80;;;16.30;99.90;;;;;;5063124;28;20072;-65
2022/07/22 01:22:05;;;;;;;9.43;3.22;;;16.00;99.90;;;;;;5054388;28;20048;-65
2022/07/22 01:24:31;;;;;;;11.18;2.47;;;16.40;99.90;;;;;;5051126;28;20029;-65
2022/07/22 01:26:57;;;;;;;8.32;2.35;;;16.10;99.90;;;;;;5055547;28;20438;-64
2022/07/22 01:29:22;;;;;;;5.65;2.28;;;16.20;99.90;;;;;;5053983;28;20037;-65
2022/07/22 01:31:48;;;;;;;8.90;2.40;;;16.20;99.90;;;;;;5057941;28;20040;-65
2022/07/22 01:34:13;;;;;;;8.77;2.28;;;16.40;99.90;;;;;;5046448;28;20045;-65
2022/07/22 01:36:39;;;;;;;8.07;2.35;;;16.10;99.90;;;;;;5052219;28;20068;-65
2022/07/22 01:39:04;;;;;;;5.60;2.28;;;16.10;99.90;;;;;;5052923;28;20041;-65
2022/07/22 01:41:30;;;;;;;7.78;2.20;;;16.20;99.90;;;;;;5052019;28;20037;-65
2022/07/22 01:43:56;;;;;;;10.77;2.40;;;16.10;99.90;;;;;;5045283;28;20041;-65
2022/07/22 01:46:23;;;;;;;9.63;2.05;;;16.10;99.90;;;;;;5052778;28;20029;-65
2022/07/22 01:48:49;;;;;;;7.18;2.95;;;15.80;99.90;;;;;;5057707;28;20067;-65
2022/07/22 01:51:15;;;;;;;5.85;1.70;;;;;;;;;;5055099;28;20032;-65
2022/07/22 01:53:41;;;;;;;3.75;2.00;;;16.10;99.90;;;;;;5049269;28;20393;-64
2022/07/22 01:56:07;;;;;;;8.40;2.00;;;16.20;99.90;;;;;;5051536;28;20047;-65
2022/07/22 01:58:32;;;;;;;4.35;1.77;;;16.00;99.90;;;;;;5060691;28;20101;-65
2022/07/22 02:00:59;;;;;;;7.07;1.90;;;16.10;99.90;;;;;;5052116;28;20554;-64
2022/07/22 02:03:27;;;;;;;8.75;2.65;;;16.10;99.90;;;;;;5048039;28;20522;-65
2022/07/22 02:05:53;;;;;;;5.65;1.92;;;16.00;99.90;;;;;;5050613;28;20025;-65
2022/07/22 02:08:19;;;;;;;6.40;2.00;;;15.90;99.90;;;;;;5049965;28;20090;-65
2022/07/22 02:10:44;;;;;;;5.03;1.88;;;16.00;99.90;;;;;;5050391;28;20048;-65
2022/07/22 02:13:10;;;;;;;6.43;1.75;;;15.90;99.90;;;;;;5050669;28;20123;-65
2022/07/22 02:15:36;;;;;;;7.53;1.80;;;16.20;99.90;;;;;;5049391;28;20047;-64
2022/07/22 02:18:10;;;;;;;5.35;1.67;;;15.90;99.90;;;;;;5051442;28;20097;-65
2022/07/22 02:20:38;;;;;;;8.18;2.05;;;16.00;99.90;;;;;;5044552;28;20056;-64
2022/07/22 02:23:04;;;;;;;6.30;1.70;;;15.90;99.90;;;;;;5049028;28;20398;-65
2022/07/22 02:25:30;;;;;;;9.60;2.15;;;15.90;99.90;;;;;;5049631;28;20033;-64
2022/07/22 02:27:59;;;;;;;4.55;1.67;;;16.00;99.90;;;;;;5050707;28;20119;-65
2022/07/22 02:30:24;;;;;;;11.10;2.63;;;15.90;99.90;;;;;;5053662;28;20043;-64
2022/07/22 02:32:50;;;;;;;9.32;1.80;;;16.00;99.90;;;;;;5052652;28;20048;-65
2022/07/22 02:35:15;;;;;;;5.05;1.85;;;16.00;99.90;;;;;;5050631;28;20044;-65
2022/07/22 02:37:41;;;;;;;8.40;2.15;;;15.90;99.90;;;;;;5050806;28;20044;-65
2022/07/22 02:40:08;;;;;;;9.50;1.88;;;15.90;99.90;;;;;;5049665;28;20040;-65
2022/07/22 02:42:34;;;;;;;5.93;1.67;;;15.90;99.90;;;;;;5051071;28;20048;-65
2022/07/22 02:44:59;;;;;;;7.60;1.92;;;15.90;99.90;;;;;;5050602;28;20467;-65
2022/07/22 02:47:25;;;;;;;5.88;1.42;;;16.00;99.90;;;;;;5056213;28;20037;-65
2022/07/22 02:49:51;;;;;;;7.03;1.95;;;16.00;99.90;;;;;;5050544;28;20060;-65
2022/07/22 02:52:17;;;;;;;5.97;2.22;;;15.90;99.90;;;;;;5051885;28;20435;-65
2022/07/22 02:54:42;;;;;;;8.38;2.42;;;16.00;99.90;;;;;;5048117;28;20037;-65
2022/07/22 02:57:08;;;;;;;7.53;2.13;;;15.90;99.90;;;;;;5051244;28;20048;-65
2022/07/22 02:59:34;;;;;;;8.95;1.92;;;15.90;99.90;;;;;;5048937;28;20098;-64
2022/07/22 03:01:59;;;;;;;9.75;1.75;;;15.80;99.90;;;;;;5055412;28;20384;-65
2022/07/22 03:04:25;;;;;;;6.30;1.92;;;15.90;99.90;;;;;;5047104;28;20045;-65
2022/07/22 03:06:50;;;;;;;10.57;2.42;;;16.00;99.90;;;;;;5054406;28;20041;-65
2022/07/22 03:09:16;;;;;;;7.20;1.90;;;16.00;99.90;;;;;;5051417;28;20025;-64
2022/07/22 03:11:41;;;;;;;3.30;2.00;;;15.80;99.90;;;;;;5060031;28;20064;-64
2022/07/22 03:14:07;;;;;;;4.95;1.70;;;15.80;99.90;;;;;;5049457;28;20502;-65
2022/07/22 03:16:32;;;;;;;5.85;2.08;;;15.90;99.90;;;;;;5054454;28;20065;-65
2022/07/22 03:18:58;;;;;;;11.00;2.33;;;16.00;99.90;;;;;;5062243;28;20037;-65
2022/07/22 03:21:24;;;;;;;9.60;2.40;;;16.00;99.90;;;;;;5055861;28;20044;-65
2022/07/22 03:23:53;;;;;;;8.45;2.40;;;15.80;99.90;;;;;;5055128;28;20036;-65
2022/07/22 03:26:20;;;;;;;6.53;2.10;;;15.90;99.90;;;;;;5048332;28;20033;-65
2022/07/22 03:28:46;;;;;;;6.63;2.72;;;15.90;99.90;;;;;;5056095;28;20709;-64
2022/07/22 03:31:12;;;;;;;7.43;2.42;;;15.90;99.90;;;;;;5053446;28;20491;-65
2022/07/22 03:33:38;;;;;;;6.07;1.80;;;15.90;99.90;;;;;;5054275;28;20132;-65
2022/07/22 03:36:05;;;;;;;9.45;2.13;;;15.90;99.90;;;;;;5052968;28;20065;-65
2022/07/22 03:38:31;;;;;;;12.85;3.35;;;15.80;99.90;;;;;;5060863;28;20399;-64
2022/07/22 03:40:56;;;;;;;10.05;1.95;;;16.10;99.90;;;;;;5056108;28;20032;-65
2022/07/22 03:43:22;;;;;;;8.05;1.95;;;;;;;;;;5061951;28;20540;-65
2022/07/22 03:45:50;;;;;;;6.35;2.50;;;15.80;99.90;;;;;;5051356;28;20037;-65
2022/07/22 03:48:16;;;;;;;7.03;1.77;;;15.80;99.90;;;;;;5059549;28;20033;-65
2022/07/22 03:50:41;;;;;;;9.27;1.92;;;15.80;99.90;;;;;;5055506;28;20801;-65
2022/07/22 03:53:07;;;;;;;5.70;1.98;;;15.80;99.90;;;;;;5057791;28;20115;-65
2022/07/22 03:55:33;;;;;;;10.10;2.22;;;16.00;99.90;;;;;;5055102;28;20040;-65
2022/07/22 03:57:58;;;;;;;6.68;2.20;;;15.90;99.90;;;;;;5059924;28;20162;-65
2022/07/22 04:00:24;;;;;;;6.97;2.30;;;15.80;99.90;;;;;;5053191;28;20041;-65
2022/07/22 04:02:49;;;;;;;7.30;2.67;;;15.80;99.90;;;;;;5055748;28;20115;-65
2022/07/22 04:05:15;;;;;;;5.50;2.22;;;15.90;99.90;;;;;;5061712;28;20052;-65
2022/07/22 04:07:43;;;;;;;10.32;1.83;;;15.80;99.90;;;;;;5055804;28;20044;-64
2022/07/22 04:10:09;;;;;;;4.57;2.10;;;15.70;99.90;;;;;;5054052;28;20037;-65
2022/07/22 04:12:36;;;;;;;4.80;1.70;;;15.70;99.90;;;;;;5052056;28;20053;-65
2022/07/22 04:15:04;;;;;;;6.00;2.10;;;15.90;99.90;;;;;;5062002;28;20036;-65
2022/07/22 04:17:29;;;;;;;6.25;1.88;;;15.90;99.90;;;;;;5053275;28;20045;-65
2022/07/22 04:19:55;;;;;;;13.75;2.88;;;15.80;99.90;;;;;;5050272;28;20040;-65
2022/07/22 04:22:21;;;;;;;7.53;2.60;;;15.70;99.90;;;;;;5052151;28;20128;-65
2022/07/22 04:24:46;;;;;;;6.70;2.78;;;15.70;99.90;;;;;;5056140;28;20179;-64
2022/07/22 04:27:12;;;;;;;13.73;2.72;;;15.70;99.90;;;;;;5055225;28;20108;-65
2022/07/22 04:29:38;;;;;;;4.90;2.05;;;15.90;99.90;;;;;;5050641;28;20045;-65
2022/07/22 04:32:03;;;;;;;8.55;2.40;;;15.80;99.90;;;;;;5052611;28;20044;-65
2022/07/22 04:34:29;;;;;;;5.82;2.22;;;15.80;99.90;;;;;;5058559;28;20037;-65
2022/07/22 04:36:55;;;;;;;6.65;2.60;;;15.80;99.90;;;;;;5053153;28;20043;-65
2022/07/22 04:39:23;;;;;;;9.15;2.50;;;16.00;99.90;;;;;;5056553;28;20044;-65
2022/07/22 04:41:48;;;;;;;6.15;2.08;;;15.80;99.90;;;;;;5051657;28;20475;-65
2022/07/22 04:44:14;;;;;;;7.13;2.17;;;15.70;99.90;;;;;;5057543;28;20105;-65
2022/07/22 04:46:40;;;;;;;8.82;3.05;;;15.70;99.90;;;;;;5059779;28;20086;-65
2022/07/22 04:49:05;;;;;;;8.98;2.70;;;15.80;99.90;;;;;;5053102;28;20079;-65
2022/07/22 04:51:31;;;;;;;6.57;2.55;;;15.80;99.90;;;;;;5056508;28;20037;-65
2022/07/22 04:53:56;;;;;;;3.22;1.67;;;15.80;99.90;;;;;;5053584;28;20483;-65
2022/07/22 04:56:22;;;;;;;5.32;2.78;;;15.90;99.90;;;;;;5055065;28;20043;-65
2022/07/22 04:58:48;;;;;;;4.50;1.83;;;15.90;99.90;;;;;;5050739;28;20056;-65
2022/07/22 05:01:13;;;;;;;10.20;2.25;;;15.80;99.90;;;;;;5053379;28;20482;-65
2022/07/22 05:03:42;;;;;;;13.10;2.45;;;15.90;99.90;;;;;;5053208;28;20048;-65
2022/07/22 05:06:08;;;;;;;6.28;2.40;;;15.80;99.90;;;;;;5054316;28;20032;-65
2022/07/22 05:08:34;;;;;;;8.80;2.58;;;15.80;99.90;;;;;;5049634;28;20377;-64
2022/07/22 05:10:59;;;;;;;6.95;2.08;;;16.10;99.90;;;;;;5048174;28;20036;-64
2022/07/22 05:13:25;;;;;;;8.63;2.55;;;15.70;99.90;;;;;;5052204;28;20049;-64
2022/07/22 05:15:50;;;;;;;6.47;2.10;;;15.80;99.90;;;;;;5053545;28;20072;-64
2022/07/22 05:18:16;;;;;;;6.63;1.98;;;15.90;99.90;;;;;;5055821;28;20029;-64
2022/07/22 05:20:42;;;;;;;10.57;2.10;;;16.00;99.90;;;;;;5051701;28;20086;-65
2022/07/22 05:23:08;;;;;;;8.93;2.78;;;15.80;99.90;;;;;;5053255;28;20041;-64
2022/07/22 05:25:33;;;;;;;3.88;1.80;;;16.00;99.90;;;;;;5049200;28;20040;-64
2022/07/22 05:27:59;;;;;;;13.00;2.17;;;15.90;99.90;;;;;;5054933;28;20048;-64
2022/07/22 05:30:24;;;;;;;5.28;2.05;;;16.00;99.90;;;;;;5063781;28;20040;-65
2022/07/22 05:32:51;;;;;;;5.30;1.88;;;16.10;99.90;;;;;;5059867;28;20040;-65
2022/07/22 05:35:17;;;;;;;9.50;2.72;;;16.10;99.90;;;;;;5050831;28;20041;-64
2022/07/22 05:37:42;;;;;;;4.78;1.80;;;16.10;99.90;;;;;;5057492;28;20398;-65
2022/07/22 05:40:08;;;;;;;7.43;2.17;;;16.00;99.90;;;;;;5057331;28;20043;-65
2022/07/22 05:42:34;;;;;;;7.90;2.40;;;16.00;99.90;;;;;;5050442;28;20124;-65
2022/07/22 05:44:59;;;;;;;5.47;2.03;;;16.00;99.90;;;;;;5051106;28;20124;-65
2022/07/22 05:47:25;;;;;;;10.40;2.42;;;16.10;99.90;;;;;;5048972;28;20403;-65
2022/07/22 05:49:51;;;;;;;7.35;2.15;;;16.00;99.90;;;;;;5052244;28;20032;-65
2022/07/22 05:52:17;;;;;;;6.60;2.65;;;16.10;99.90;;;;;;5065082;28;20049;-65
2022/07/22 05:54:42;;;;;;;7.60;2.08;;;16.10;99.90;;;;;;5059880;28;20119;-65
2022/07/22 05:57:09;;;;;;;8.07;2.35;;;16.00;99.90;;;;;;5059320;28;20137;-65
2022/07/22 05:59:35;;;;;;;8.43;3.38;;;16.00;99.90;;;;;;5066921;28;20107;-65
2022/07/22 06:02:04;;;;;;;8.13;2.78;;;16.10;99.90;;;;;;5051340;28;20045;-65
2022/07/22 06:04:29;;;;;;;6.68;1.88;;;16.10;99.90;;;;;;5069013;28;20060;-65
2022/07/22 06:06:55;;;;;;;6.65;3.10;;;16.20;99.90;;;;;;5071780;28;20048;-65
2022/07/22 06:09:20;;;;;;;4.63;2.00;;;16.20;99.90;;;;;;5071770;28;20052;-65
2022/07/22 06:11:47;;;;;;;8.55;2.78;;;;;;;;;;5066084;28;20037;-64
2022/07/22 06:14:15;;;;;;;9.48;2.25;;;16.20;99.90;;;;;;5060004;28;20041;-64
2022/07/22 06:16:48;;;;;;;7.18;1.70;;;16.20;99.90;;;;;;5052994;28;20134;-64
2022/07/22 06:19:13;;;;;;;7.65;1.73;;;16.20;99.90;;;;;;5064152;28;20402;-65
2022/07/22 06:21:39;;;;;;;6.10;1.77;;;16.30;99.90;;;;;;5053618;28;20033;-64
2022/07/22 06:24:05;;;;;;;4.78;1.70;;;16.50;99.90;;;;;;5051510;28;20627;-64
2022/07/22 06:26:30;;;;;;;6.72;2.13;;;;;;;;;;5051498;28;20471;-64
2022/07/22 06:28:56;;;;;;;2.67;1.60;;;16.40;99.90;;;;;;5052346;28;20024;-64
2022/07/22 06:31:22;;;;;;;7.00;2.00;;;16.40;99.90;;;;;;5050095;28;20048;-64
2022/07/22 06:33:47;;;;;;;9.23;1.90;;;16.40;99.90;;;;;;5053424;28;20037;-64
2022/07/22 06:36:14;;;;;;;6.50;2.20;;;16.40;99.90;;;;;;5072785;28;20036;-64
2022/07/22 06:38:40;;;;;;;6.20;1.58;;;16.40;99.90;;;;;;5056894;28;20056;-64
2022/07/22 06:41:05;;;;;;;12.77;3.47;;;16.70;99.90;;;;;;5051402;28;20036;-64
2022/07/22 06:43:31;;;;;;;6.03;1.65;;;16.60;99.90;;;;;;5062963;28;20055;-64
2022/07/22 06:45:56;;;;;;;6.65;2.60;;;16.50;99.90;;;;;;5072171;28;20112;-64
2022/07/22 06:48:22;;;;;;;5.53;1.30;;;16.50;99.90;;;;;;5060855;28;20044;-65
2022/07/22 06:50:51;;;;;;;6.47;1.80;;;;;;;;;;5053210;28;20044;-64
2022/07/22 06:53:20;;;;;;;4.13;1.45;;;16.60;99.90;;;;;;5062507;28;20170;-65
2022/07/22 06:55:46;;;;;;;6.55;2.28;;;16.70;99.90;;;;;;5066480;28;20068;-64
2022/07/22 06:58:12;;;;;;;7.95;2.08;;;16.60;99.90;;;;;;5051911;28;20054;-64
2022/07/22 07:00:40;;;;;;;6.40;2.17;;;16.70;99.90;;;;;;5062960;28;20048;-64
2022/07/22 07:03:05;;;;;;;4.38;1.38;;;16.50;99.90;;;;;;5064875;28;20077;-64
2022/07/22 07:05:31;;;;;;;7.78;1.70;;;16.70;99.90;;;;;;5052422;28;20096;-64
2022/07/22 07:07:57;;;;;;;2.90;1.60;;;16.70;99.90;;;;;;5034448;28;20043;-64
2022/07/22 07:10:22;;;;;;;5.32;2.60;;;16.60;99.90;;;;;;5052100;28;20044;-64
2022/07/22 07:12:48;;;;;;;5.25;1.40;;;16.90;99.90;;;;;;5051009;28;20041;-65
2022/07/22 07:15:13;;;;;;;4.97;1.58;;;16.90;99.90;;;;;;5063581;28;20049;-64
2022/07/22 07:17:39;;;;;;;6.03;1.63;;;16.80;99.90;;;;;;5050830;28;20049;-65
2022/07/22 07:20:06;;;;;;;3.13;1.13;;;17.00;99.90;;;;;;5071445;28;20036;-64
2022/07/22 07:22:34;;;;;;;7.15;1.52;;;17.00;99.90;;;;;;5051256;28;20063;-64
2022/07/22 07:25:04;;;;;;;7.72;1.52;;;16.80;99.90;;;;;;5064961;28;20037;-64
2022/07/22 07:27:30;;;;;;;5.50;2.10;;;16.70;99.90;;;;;;5043473;28;20483;-64
2022/07/22 07:29:56;;;;;;;6.43;1.80;;;16.80;99.90;;;;;;5058275;28;20044;-64
2022/07/22 07:32:21;;;;;;;4.38;1.67;;;16.70;99.90;;;;;;5050463;28;20036;-64
2022/07/22 07:34:47;;;;;;;2.65;1.17;;;16.80;99.90;;;;;;5052363;28;20510;-64
2022/07/22 07:37:12;;;;;;;8.85;1.50;;;16.70;99.90;;;;;;5065929;28;20064;-64
2022/07/22 07:39:41;;;;;;;6.90;1.77;;;16.80;99.90;;;;;;5058854;28;20048;-64
2022/07/22 07:42:07;;;;;;;5.40;1.23;;;;;;;;;;5058981;28;20056;-64
2022/07/22 07:44:33;;;;;;;5.05;1.20;;;16.80;99.90;;;;;;5058696;28;20525;-64
2022/07/22 07:46:58;;;;;;;7.47;2.10;;;17.10;99.90;;;;;;5057454;28;20041;-64
2022/07/22 07:49:24;;;;;;;8.27;1.80;;;17.00;99.90;;;;;;5050900;28;20391;-64
2022/07/22 07:51:50;;;;;;;7.32;2.28;;;16.80;99.90;;;;;;5050925;28;20132;-64
2022/07/22 07:54:15;;;;;;;8.52;1.65;;;17.00;99.90;;;;;;5050545;28;20048;-64
2022/07/22 07:56:41;;;;;;;6.63;1.52;;;16.70;99.90;;;;;;5062318;28;20048;-64
2022/07/22 07:59:06;;;;;;;3.88;1.25;;;17.00;99.90;;;;;;5075698;28;20452;-64
2022/07/22 08:01:32;;;;;;;3.65;2.20;;;17.00;99.90;;;;;;5066573;28;20127;-64
2022/07/22 08:03:58;;;;;;;9.18;1.80;;;16.90;99.90;;;;;;5067006;28;20048;-64
2022/07/22 08:06:24;;;;;;;5.22;1.23;;;17.10;99.90;;;;;;5060108;28;20044;-64
2022/07/22 08:08:49;;;;;;;7.18;1.80;;;17.00;99.90;;;;;;5063564;28;20040;-64
2022/07/22 08:11:15;;;;;;;3.85;1.65;;;17.20;99.90;;;;;;5055013;28;20495;-64
2022/07/22 08:13:40;;;;;;;2.85;1.42;;;17.10;99.90;;;;;;5054236;28;20487;-64
2022/07/22 08:16:06;;;;;;;3.88;1.30;;;17.20;99.90;;;;;;5055330;28;20041;-64
2022/07/22 08:18:34;;;;;;;7.57;1.42;;;17.00;99.90;;;;;;5060511;28;20085;-64
2022/07/22 08:20:59;;;;;;;6.32;1.83;;;17.20;99.90;;;;;;5075282;28;20075;-64
2022/07/22 08:23:25;;;;;;;7.35;1.42;;;17.50;99.90;;;;;;5058653;28;20069;-64
2022/07/22 08:25:51;;;;;;;5.18;1.48;;;17.20;99.90;;;;;;5054293;28;20479;-64
2022/07/22 08:28:16;;;;;;;5.30;1.25;;;17.30;99.90;;;;;;5067824;28;20040;-64
2022/07/22 08:30:43;;;;;;;5.70;1.00;;;17.20;99.90;;;;;;5056364;28;20091;-64
2022/07/22 08:33:09;;;;;;;7.80;1.23;;;17.10;99.90;;;;;;5064656;28;20127;-64
2022/07/22 08:35:34;;;;;;;6.25;1.27;;;17.30;99.90;;;;;;5057716;28;20135;-65
2022/07/22 08:38:00;;;;;;;6.82;1.40;;;17.10;99.90;;;;;;5070042;28;20049;-64
2022/07/22 08:40:26;;;;;;;3.72;1.05;;;17.30;99.90;;;;;;5069151;28;20119;-64
2022/07/22 08:42:52;;;;;;;7.90;1.38;;;17.30;99.90;;;;;;5068773;28;20079;-64
2022/07/22 08:45:20;;;;;;;13.13;2.70;;;17.30;99.90;;;;;;5053461;28;20032;-65
2022/07/22 08:47:51;;;;;;;4.47;1.08;;;17.40;99.90;;;;;;5073839;28;20044;-64
2022/07/22 08:50:18;;;;;;;8.65;1.70;;;17.30;99.90;;;;;;5061282;28;20052;-64
2022/07/22 08:52:44;;;;;;;4.25;1.05;;;17.40;99.90;;;;;;5062326;28;20126;-64
2022/07/22 08:55:09;;;;;;;7.13;1.10;;;17.30;99.90;;;;;;5064404;28;20064;-64
2022/07/22 08:57:37;;;;;;;8.38;1.35;;;17.20;99.90;;;;;;5058763;28;20525;-65
2022/07/22 09:00:10;;;;;;;5.47;1.20;;;17.30;99.90;;;;;;5073239;28;20501;-65
2022/07/22 09:02:41;;;;;;;4.57;1.50;;;17.30;99.90;;;;;;5056600;28;20049;-64
2022/07/22 09:05:08;;;;;;;4.32;1.35;;;17.30;99.90;;;;;;5054286;28;20398;-65
2022/07/22 09:07:37;;;;;;;4.60;1.30;;;17.30;99.90;;;;;;5068295;28;20494;-64
2022/07/22 09:10:09;;;;;;;6.30;1.40;;;17.40;99.90;;;;;;5066013;28;20037;-65
2022/07/22 09:12:49;;;;;;;7.82;1.40;;;17.40;99.90;;;;;;5068868;28;20041;-64
2022/07/22 09:15:14;;;;;;;4.03;1.10;;;17.20;99.90;;;;;;5040256;28;20510;-64
2022/07/22 09:17:40;;;;;;;3.97;1.17;;;17.30;99.90;;;;;;5060134;28;20040;-64
2022/07/22 09:20:17;;;;;;;5.80;1.38;;;17.30;99.90;;;;;;5052768;28;20029;-64
2022/07/22 09:22:45;;;;;;;2.47;0.90;;;17.20;99.90;;;;;;5034622;28;20323;-64
2022/07/22 09:25:34;;;;;;;5.97;1.02;;;17.20;99.90;;;;;;5058134;28;20028;-64
2022/07/22 09:28:05;;;;;;;7.20;1.42;;;17.10;99.90;;;;;;5053844;28;20080;-64
2022/07/22 09:30:39;;;;;;;2.83;1.15;;;17.50;99.90;;;;;;5053159;28;20037;-64
2022/07/22 09:33:06;;;;;;;3.17;0.98;;;17.30;99.90;;;;;;5052840;28;20061;-64
2022/07/22 09:35:32;;;;;;;5.30;1.20;;;17.10;99.90;;;;;;5055229;28;20052;-64
2022/07/22 09:38:00;;;;;;;2.30;0.70;;;17.00;99.90;;;;;;5065495;28;20053;-65
2022/07/22 09:40:29;;;;;;;4.10;0.90;;;17.00;99.90;;;;;;5051584;28;20067;-64
2022/07/22 09:42:59;;;;;;;2.17;0.85;;;17.10;99.90;;;;;;5053608;28;20045;-64
2022/07/22 09:45:26;;;;;;;2.35;0.70;;;17.00;99.90;;;;;;5066846;28;20033;-64
2022/07/22 09:47:54;;;;;;;2.13;1.67;;;16.90;99.90;;;;;;5045960;28;20033;-64
2022/07/22 09:50:24;;;;;;;3.65;0.70;;;17.10;99.90;;;;;;5070260;28;20047;-64
2022/07/22 09:52:51;;;;;;;2.80;0.82;;;16.90;99.90;;;;;;5072339;28;20367;-64
2022/07/22 09:55:19;;;;;;;4.88;1.10;;;16.90;99.90;;;;;;5060966;28;20045;-64
2022/07/22 09:57:45;;;;;;;4.30;0.85;;;17.00;99.90;;;;;;5051673;28;20064;-64
2022/07/22 10:00:12;;;;;;;3.40;0.98;;;16.90;99.90;;;;;;5052341;28;20044;-65
2022/07/22 10:02:50;;;;;;;2.08;0.75;;;17.20;99.90;;;;;;5053451;28;20048;-64
2022/07/22 10:05:25;;;;;;;6.57;0.90;;;17.00;99.90;;;;;;5064042;28;20041;-64
2022/07/22 10:07:52;;;;;;;3.45;0.88;;;17.20;99.90;;;;;;5051817;28;20049;-64
2022/07/22 10:10:22;;;;;;;8.23;1.13;;;17.10;99.90;;;;;;5060653;28;20041;-65
2022/07/22 10:12:50;;;;;;;2.80;0.60;;;17.40;99.90;;;;;;5069952;28;20071;-65
2022/07/22 10:15:16;;;;;;;1.92;0.52;;;17.30;99.90;;;;;;5064566;28;20517;-64
2022/07/22 10:17:47;;;;;;;2.08;0.60;;;17.40;99.90;;;;;;5052849;28;20451;-65
2022/07/22 10:20:18;;;;;;;6.50;0.80;;;17.40;99.90;;;;;;5039474;28;20063;-64
2022/07/22 10:22:55;;;;;;;3.35;0.95;;;17.50;99.90;;;;;;5051397;28;20080;-65
2022/07/22 10:25:24;;;;;;;3.33;0.80;;;17.70;99.90;;;;;;5042616;28;20115;-64
2022/07/22 10:27:53;;;;;;;2.15;0.80;;;17.70;99.90;;;;;;5062246;28;20068;-64
2022/07/22 10:30:22;;;;;;;4.00;1.20;;;17.70;99.90;;;;;;5057470;28;20048;-64
2022/07/22 10:33:07;;;;;;;3.60;0.88;;;17.80;99.90;;;;;;5064804;28;20124;-64
2022/07/22 10:35:35;;;;;;;3.42;0.70;;;18.00;99.90;;;;;;5053847;28;20080;-64
2022/07/22 10:38:06;;;;;;;3.25;0.95;;;17.90;99.90;;;;;;5071457;28;20050;-65
2022/07/22 10:40:56;;;;;;;1.73;0.93;;;17.80;99.90;;;;;;5056097;28;20037;-65
2022/07/22 10:43:31;;;;;;;1.90;0.93;;;18.00;99.90;;;;;;5059661;28;20048;-64
2022/07/22 10:45:58;;;;;;;7.43;1.00;;;18.00;99.90;;;;;;5058153;28;20033;-64
2022/07/22 10:48:35;;;;;;;6.20;1.33;;;18.00;99.90;;;;;;5061149;28;20471;-64
2022/07/22 10:51:20;;;;;;;2.28;0.75;;;17.90;99.90;;;;;;5054694;28;20435;-64
2022/07/22 10:53:58;;;;;;;3.42;0.80;;;17.90;99.90;;;;;;5051159;28;20045;-65
2022/07/22 10:56:35;;;;;;;1.55;0.80;;;18.00;99.90;;;;;;5038592;28;20041;-64
2022/07/22 10:59:15;;;;;;;4.13;0.90;;;18.10;99.90;;;;;;5051293;28;20052;-64
2022/07/22 11:01:50;;;;;;;2.83;0.90;;;17.70;99.90;;;;;;5066319;28;20041;-64
2022/07/22 11:04:18;;;;;;;2.00;0.70;;;17.80;99.90;;;;;;5050919;28;20050;-64
2022/07/22 11:06:46;;;;;;;3.58;0.80;;;17.80;99.90;;;;;;5052277;28;20398;-64
2022/07/22 11:09:12;;;;;;;1.55;0.50;;;17.70;99.90;;;;;;5065785;28;20064;-64
2022/07/22 11:11:41;;;;;;;2.70;0.50;;;17.80;99.90;;;;;;5051609;28;20044;-64
2022/07/22 11:14:14;;;;;;;2.42;0.68;;;17.80;99.90;;;;;;5052471;28;20052;-65
2022/07/22 11:16:40;;;;;;;2.53;0.70;;;17.80;99.90;;;;;;5052286;28;20087;-64
2022/07/22 11:19:05;;;;;;;2.38;0.65;;;17.80;99.90;;;;;;5062085;28;20041;-64
2022/07/22 11:21:33;;;;;;;2.78;0.65;;;17.70;99.90;;;;;;5053796;28;20120;-64
2022/07/22 11:24:04;;;;;;;1.40;0.88;;;17.70;99.90;;;;;;5052064;28;20033;-65
2022/07/22 11:26:39;;;;;;;1.83;0.70;;;17.70;99.90;;;;;;5066925;28;20045;-64
2022/07/22 11:29:04;;;;;;;;;;;17.80;99.90;;;;;;5072534;28;20036;-64
2022/07/22 11:31:30;;;;;;;5.30;0.80;;;17.70;99.90;;;;;;5053283;28;19916;-65
2022/07/22 11:34:13;;;;;;;2.58;0.75;;;17.90;99.90;;;;;;5054683;28;20048;-64
2022/07/22 11:36:43;;;;;;;5.22;0.93;;;17.80;99.90;;;;;;5067705;28;20469;-65
2022/07/22 11:39:11;;;;;;;3.80;2.15;;;17.60;99.90;;;;;;5057755;28;20033;-64
2022/07/22 11:41:36;;;;;;;3.83;1.23;;;17.90;99.90;;;;;;5065506;28;20060;-64
2022/07/22 11:44:03;;;;;;;3.58;0.70;;;17.70;99.90;;;;;;5060401;28;20534;-64
2022/07/22 11:46:37;;;;;;;2.90;0.90;;;17.60;99.90;;;;;;5066783;28;20029;-64
2022/07/22 11:49:03;;;;;;;1.92;0.57;;;17.80;99.90;;;;;;5070131;28;20097;-64
2022/07/22 11:51:31;;;;;;;3.83;0.73;;;17.60;99.90;;;;;;5061423;28;20096;-64
2022/07/22 11:53:57;;;;;;;3.67;0.90;;;17.80;99.90;;;;;;5054498;28;20402;-64
2022/07/22 11:56:23;;;;;;;1.17;0.65;;;17.70;99.90;;;;;;5061222;28;20036;-64
2022/07/22 11:58:53;;;;;;;2.22;0.57;;;17.90;99.90;;;;;;5063386;28;20041;-65
2022/07/22 12:01:19;;;;;;;2.80;0.70;;;17.70;99.90;;;;;;5059472;28;20043;-64
2022/07/22 12:03:48;;;;;;;3.00;0.65;;;17.90;99.90;;;;;;5064884;28;20045;-64
2022/07/22 12:06:18;;;;;;;4.30;1.10;;;17.70;99.90;;;;;;5059239;28;20036;-64
2022/07/22 12:08:54;;;;;;;3.67;0.75;;;17.90;99.90;;;;;;5074537;28;20083;-65
2022/07/22 12:11:22;;;;;;;1.67;0.77;;;17.80;99.90;;;;;;5060088;28;20043;-65
2022/07/22 12:13:49;;;;;;;1.85;0.73;;;18.10;99.90;;;;;;5066078;28;20051;-64
2022/07/22 12:16:29;;;;;;;4.68;0.63;;;18.20;99.90;;;;;;5053994;28;20152;-64
2022/07/22 12:19:01;;;;;;;3.25;0.70;;;17.80;99.90;;;;;;5053966;28;20538;-64
2022/07/22 12:21:32;;;;;;;1.98;0.40;;;18.00;99.90;;;;;;5054751;28;20051;-64
2022/07/22 12:24:02;;;;;;;1.55;0.60;;;18.20;99.90;;;;;;5066100;28;20048;-65
2022/07/22 12:26:51;;;;;;;2.38;0.60;;;18.10;99.90;;;;;;5066819;28;20056;-64
2022/07/22 12:29:29;;;;;;;3.00;0.70;;;17.90;99.90;;;;;;5068224;28;20068;-64
2022/07/22 12:32:07;;;;;;;3.38;0.50;;;17.80;99.90;;;;;;5053527;28;20044;-65
2022/07/22 12:34:41;;;;;;;1.75;0.50;;;18.10;99.90;;;;;;5065429;28;20099;-64
2022/07/22 12:37:21;;;;;;;1.70;0.57;;;17.90;99.90;;;;;;5054225;28;20076;-64
2022/07/22 12:39:53;;;;;;;1.00;0.43;;;18.10;99.90;;;;;;5055167;28;20059;-64
2022/07/22 12:42:19;;;;;;;3.83;0.50;;;18.10;99.90;;;;;;5053101;28;20498;-64
2022/07/22 12:44:58;;;;;;;1.63;0.60;;;17.90;99.90;;;;;;5055128;28;20039;-64
2022/07/22 12:48:05;;;;;;;2.80;0.50;;;18.00;99.90;;;;;;5055497;28;20068;-65
2022/07/22 12:50:52;;;;;;;2.50;0.80;;;18.00;99.90;;;;;;5069378;28;20037;-64